Time;durP1;ratioP1;P1;durP2;ratioP2;P2;SDS_P1;SDS_P2;PMS_P1;PMS_P2;Temp;Humidity;BMP_temperature;BMP_pressure;BME280_temperature;BME280_humidity;BME280_pressure;Samples;Min_cycle;Max_cycle;Signal;HPM_P1;HPM_P2
2022/03/28 00:01:26;;;;;;;14.10;12.13;;;5.80;1.00;;;;;;5070407;28;20243;-64
2022/03/28 00:03:51;;;;;;;13.30;11.17;;;5.80;1.00;;;;;;5079050;28;20273;-66
2022/03/28 00:06:17;;;;;;;14.90;12.00;;;5.80;1.00;;;;;;5084523;28;20212;-66
2022/03/28 00:08:42;;;;;;;17.03;12.20;;;5.70;1.00;;;;;;5070628;28;20398;-65
2022/03/28 00:11:08;;;;;;;16.73;11.50;;;5.60;1.00;;;;;;5080986;28;20181;-66
2022/03/28 00:13:35;;;;;;;13.87;11.23;;;5.60;1.00;;;;;;5071091;28;20264;-66
2022/03/28 00:16:02;;;;;;;14.13;11.18;;;5.60;1.00;;;;;;5069873;28;20435;-66
2022/03/28 00:18:27;;;;;;;13.40;10.82;;;5.60;68.30;;;;;;5075215;28;20912;-65
2022/03/28 00:20:54;;;;;;;15.23;10.70;;;5.60;99.90;;;;;;5071314;28;20272;-66
2022/03/28 00:23:20;;;;;;;14.85;11.60;;;5.60;99.90;;;;;;5084157;28;20525;-65
2022/03/28 00:25:46;;;;;;;14.25;10.63;;;5.50;99.90;;;;;;5084943;28;20181;-66
2022/03/28 00:28:12;;;;;;;13.18;11.02;;;5.50;99.90;;;;;;5073791;28;20201;-66
2022/03/28 00:30:38;;;;;;;14.45;11.32;;;5.50;99.90;;;;;;5068885;28;20634;-65
2022/03/28 00:33:04;;;;;;;17.60;13.00;;;5.50;99.90;;;;;;5067224;28;20182;-66
2022/03/28 00:35:31;;;;;;;15.05;11.05;;;5.50;99.90;;;;;;5070599;28;20451;-65
2022/03/28 00:37:56;;;;;;;11.52;10.05;;;5.40;99.90;;;;;;5069337;28;20216;-66
2022/03/28 00:40:23;;;;;;;13.90;11.77;;;5.40;99.90;;;;;;5069204;28;20178;-63
2022/03/28 00:42:49;;;;;;;13.43;11.13;;;5.30;99.90;;;;;;5070277;28;20607;-65
2022/03/28 00:45:16;;;;;;;12.75;10.95;;;5.30;99.90;;;;;;5065525;28;20183;-66
2022/03/28 00:47:43;;;;;;;13.85;11.40;;;5.30;99.90;;;;;;5062706;28;20581;-64
2022/03/28 00:50:09;;;;;;;14.75;11.50;;;5.20;99.90;;;;;;5069445;28;20555;-66
2022/03/28 00:52:37;;;;;;;15.05;12.32;;;5.20;99.90;;;;;;5070317;28;20205;-66
2022/03/28 00:55:05;;;;;;;13.15;9.80;;;5.10;99.90;;;;;;5069498;28;20234;-66
2022/03/28 00:57:31;;;;;;;15.82;11.43;;;5.10;99.90;;;;;;5070495;28;20245;-66
2022/03/28 00:59:57;;;;;;;14.80;11.37;;;5.10;99.90;;;;;;5078671;28;20258;-65
2022/03/28 01:02:23;;;;;;;13.43;10.70;;;5.10;99.90;;;;;;5073868;28;20580;-66
2022/03/28 01:04:50;;;;;;;12.33;10.73;;;5.10;99.90;;;;;;5077174;28;20253;-67
2022/03/28 01:07:16;;;;;;;12.88;10.30;;;5.00;99.90;;;;;;5073300;28;20213;-66
2022/03/28 01:09:42;;;;;;;13.20;10.57;;;5.00;99.90;;;;;;5072223;28;20548;-67
2022/03/28 01:12:09;;;;;;;12.23;10.53;;;5.00;99.90;;;;;;5069262;28;20193;-65
2022/03/28 01:14:36;;;;;;;13.80;10.75;;;4.90;99.90;;;;;;5071552;28;20178;-65
2022/03/28 01:19:53;;;;;;;14.88;10.73;;;4.90;99.90;;;;;;5065281;28;20180;-65
2022/03/28 01:22:19;;;;;;;11.60;10.03;;;4.90;99.90;;;;;;5070046;28;20525;-64
2022/03/28 01:24:46;;;;;;;13.53;10.40;;;4.80;99.90;;;;;;5076998;28;20616;-65
2022/03/28 01:27:14;;;;;;;13.45;11.30;;;4.80;99.90;;;;;;5068708;28;20216;-65
2022/03/28 01:29:42;;;;;;;14.50;11.38;;;4.80;99.90;;;;;;5067494;28;20177;-67
2022/03/28 01:32:08;;;;;;;14.68;10.95;;;4.80;99.90;;;;;;5060270;28;20186;-64
2022/03/28 01:34:34;;;;;;;14.00;11.43;;;4.70;99.90;;;;;;5067304;28;20201;-64
2022/03/28 01:36:59;;;;;;;14.83;11.13;;;4.70;99.90;;;;;;5068319;28;20475;-65
2022/03/28 01:39:26;;;;;;;12.80;10.53;;;4.70;99.90;;;;;;5067786;28;20436;-65
2022/03/28 01:41:52;;;;;;;16.02;11.80;;;4.70;99.90;;;;;;5067975;28;20188;-64
2022/03/28 01:44:17;;;;;;;13.90;10.90;;;4.70;99.90;;;;;;5068280;28;20181;-64
2022/03/28 01:46:45;;;;;;;16.03;11.50;;;4.60;99.90;;;;;;5067317;28;21308;-66
2022/03/28 01:49:15;;;;;;;13.90;11.35;;;4.60;99.90;;;;;;5069466;28;20198;-65
2022/03/28 01:51:40;;;;;;;15.23;11.75;;;4.60;99.90;;;;;;5078669;28;20658;-65
2022/03/28 01:54:06;;;;;;;13.40;11.30;;;4.50;99.90;;;;;;5066907;28;20341;-64
2022/03/28 01:56:36;;;;;;;16.60;12.10;;;4.50;99.90;;;;;;5076801;28;20273;-66
2022/03/28 01:59:03;;;;;;;13.73;11.63;;;4.50;99.90;;;;;;5072721;28;20186;-65
2022/03/28 02:01:28;;;;;;;14.32;12.38;;;4.50;99.90;;;;;;5071306;28;20300;-65
2022/03/28 02:03:54;;;;;;;12.80;11.40;;;4.50;99.90;;;;;;5068636;28;20260;-65
2022/03/28 02:06:19;;;;;;;17.17;12.00;;;4.40;99.90;;;;;;5070940;28;20956;-66
2022/03/28 02:08:45;;;;;;;17.30;12.77;;;4.40;99.90;;;;;;5067988;28;20181;-66
2022/03/28 02:11:10;;;;;;;14.57;11.63;;;4.40;99.90;;;;;;5068782;28;20796;-64
2022/03/28 02:13:36;;;;;;;17.10;12.53;;;4.30;99.90;;;;;;5079781;28;20180;-64
2022/03/28 02:16:02;;;;;;;13.83;11.20;;;4.40;99.90;;;;;;5060680;28;20202;-65
2022/03/28 02:18:28;;;;;;;15.27;11.65;;;4.30;99.90;;;;;;5069254;28;20213;-65
2022/03/28 02:20:54;;;;;;;17.20;12.67;;;4.30;99.90;;;;;;5070964;28;20204;-65
2022/03/28 02:23:20;;;;;;;13.60;11.53;;;4.20;99.90;;;;;;5080833;28;20411;-65
2022/03/28 02:25:45;;;;;;;15.32;11.77;;;4.20;99.90;;;;;;5076014;28;20186;-65
2022/03/28 02:28:11;;;;;;;15.27;11.93;;;4.20;99.90;;;;;;5064481;28;20535;-65
2022/03/28 02:30:37;;;;;;;15.55;12.35;;;4.10;99.90;;;;;;5071056;28;20564;-65
2022/03/28 02:33:03;;;;;;;15.30;12.00;;;4.10;99.90;;;;;;5069342;28;20304;-65
2022/03/28 02:35:29;;;;;;;16.90;12.50;;;4.10;99.90;;;;;;5069614;28;20291;-64
2022/03/28 02:37:54;;;;;;;15.83;12.43;;;4.10;99.90;;;;;;5074005;28;20213;-65
2022/03/28 02:40:20;;;;;;;13.23;11.43;;;4.10;99.90;;;;;;5091051;28;20184;-64
2022/03/28 02:42:45;;;;;;;14.57;11.60;;;4.10;99.90;;;;;;5071690;28;20275;-65
2022/03/28 02:45:11;;;;;;;15.10;12.27;;;4.00;99.90;;;;;;5073789;28;20194;-65
2022/03/28 02:47:37;;;;;;;15.47;12.43;;;4.00;99.90;;;;;;5078184;28;20189;-65
2022/03/28 02:50:04;;;;;;;16.70;12.00;;;4.00;99.90;;;;;;5081220;28;20188;-65
2022/03/28 02:52:29;;;;;;;14.95;11.63;;;4.00;99.90;;;;;;5074070;28;20198;-65
2022/03/28 02:54:55;;;;;;;14.10;11.80;;;4.00;99.90;;;;;;5074311;28;20279;-64
2022/03/28 02:57:21;;;;;;;16.73;12.05;;;4.00;99.90;;;;;;5069364;28;20209;-64
2022/03/28 02:59:46;;;;;;;13.80;10.87;;;4.00;99.90;;;;;;5070821;28;20193;-65
2022/03/28 03:02:12;;;;;;;16.40;12.10;;;4.00;99.90;;;;;;5074158;28;20250;-64
2022/03/28 03:04:38;;;;;;;14.18;11.23;;;3.90;99.90;;;;;;5076293;28;20257;-64
2022/03/28 03:07:04;;;;;;;18.00;12.20;;;3.90;99.90;;;;;;5074264;28;20718;-65
2022/03/28 03:09:30;;;;;;;16.77;12.23;;;3.90;99.90;;;;;;5071790;28;20200;-65
2022/03/28 03:11:56;;;;;;;15.50;11.80;;;3.80;99.90;;;;;;5079643;28;20731;-65
2022/03/28 03:14:23;;;;;;;17.80;12.68;;;3.80;99.90;;;;;;5072951;28;20450;-66
2022/03/28 03:16:49;;;;;;;17.80;12.25;;;3.80;99.90;;;;;;5079137;28;20209;-65
2022/03/28 03:19:15;;;;;;;16.05;12.13;;;3.80;99.90;;;;;;5081069;28;20169;-63
2022/03/28 03:21:40;;;;;;;16.90;12.40;;;3.80;99.90;;;;;;5071693;28;20204;-66
2022/03/28 03:24:06;;;;;;;16.43;12.70;;;3.80;99.90;;;;;;5069972;28;20563;-65
2022/03/28 03:26:32;;;;;;;17.07;12.63;;;3.80;99.90;;;;;;5069810;28;20583;-65
2022/03/28 03:28:58;;;;;;;15.07;11.63;;;3.80;99.90;;;;;;5069823;28;20242;-66
2022/03/28 03:31:25;;;;;;;15.85;11.75;;;3.80;99.90;;;;;;5071127;28;20267;-65
2022/03/28 03:33:50;;;;;;;17.27;12.15;;;3.70;99.90;;;;;;5071045;28;20968;-66
2022/03/28 03:36:16;;;;;;;16.10;12.50;;;3.70;99.90;;;;;;5071739;28;20239;-65
2022/03/28 03:38:42;;;;;;;15.00;12.00;;;3.70;99.90;;;;;;5071531;28;20189;-65
2022/03/28 03:41:07;;;;;;;17.53;12.97;;;3.80;99.90;;;;;;5070192;28;20276;-66
2022/03/28 03:43:33;;;;;;;17.27;12.10;;;3.70;99.90;;;;;;5071196;28;20242;-66
2022/03/28 03:45:59;;;;;;;16.30;12.30;;;3.70;99.90;;;;;;5070251;28;20216;-66
2022/03/28 03:48:26;;;;;;;15.80;12.27;;;3.70;99.90;;;;;;5062655;28;20535;-65
2022/03/28 03:50:51;;;;;;;20.13;13.85;;;3.60;99.90;;;;;;5070325;28;20182;-64
2022/03/28 03:53:19;;;;;;;17.10;13.03;;;3.60;99.90;;;;;;5070099;28;20217;-66
2022/03/28 03:55:45;;;;;;;16.60;12.63;;;3.60;99.90;;;;;;5070062;28;20467;-60
2022/03/28 03:58:11;;;;;;;24.77;12.77;;;3.60;99.90;;;;;;5070043;28;20202;-64
2022/03/28 04:00:37;;;;;;;15.00;13.17;;;3.60;99.90;;;;;;5074913;28;20189;-64
2022/03/28 04:03:03;;;;;;;14.67;12.07;;;3.60;99.90;;;;;;5080768;28;20212;-64
2022/03/28 04:05:29;;;;;;;17.73;12.40;;;3.60;99.90;;;;;;5069393;28;20513;-66
2022/03/28 04:07:55;;;;;;;17.23;12.27;;;3.60;99.90;;;;;;5075932;28;20521;-66
2022/03/28 04:10:22;;;;;;;15.53;12.07;;;3.50;99.90;;;;;;5074000;28;20193;-64
2022/03/28 04:12:47;;;;;;;14.43;12.23;;;3.60;99.90;;;;;;5082479;28;20960;-65
2022/03/28 04:15:13;;;;;;;15.60;12.80;;;3.60;99.90;;;;;;5077770;28;20197;-66
2022/03/28 04:17:43;;;;;;;14.10;11.30;;;3.60;99.90;;;;;;5075766;28;20466;-65
2022/03/28 04:20:12;;;;;;;17.58;12.65;;;3.50;99.90;;;;;;5076104;28;20184;-65
2022/03/28 04:22:39;;;;;;;18.23;13.82;;;3.50;99.90;;;;;;5071014;28;20208;-66
2022/03/28 04:25:05;;;;;;;14.68;12.13;;;3.50;99.90;;;;;;5066994;28;20166;-66
2022/03/28 04:27:31;;;;;;;18.05;14.85;;;3.50;99.90;;;;;;5068430;28;20284;-66
2022/03/28 04:29:56;;;;;;;18.07;12.63;;;3.50;99.90;;;;;;5074873;28;20585;-65
2022/03/28 04:32:22;;;;;;;15.80;12.53;;;3.50;99.90;;;;;;5080900;28;20657;-65
2022/03/28 04:34:48;;;;;;;17.93;13.43;;;3.40;99.90;;;;;;5082504;28;20211;-63
2022/03/28 04:37:14;;;;;;;16.90;11.75;;;3.40;99.90;;;;;;5076714;28;20201;-66
2022/03/28 04:39:39;;;;;;;17.07;12.97;;;3.40;99.90;;;;;;5073134;28;20192;-64
2022/03/28 04:42:05;;;;;;;18.43;11.90;;;3.40;99.90;;;;;;5073870;28;20181;-65
2022/03/28 04:44:31;;;;;;;15.00;11.80;;;3.40;99.90;;;;;;5076906;28;20192;-65
2022/03/28 04:46:56;;;;;;;17.07;13.47;;;3.30;99.90;;;;;;5079942;28;20453;-65
2022/03/28 04:49:22;;;;;;;17.53;12.07;;;3.30;99.90;;;;;;5070880;28;20646;-66
2022/03/28 04:51:47;;;;;;;16.03;11.50;;;3.30;99.90;;;;;;5075795;28;20225;-65
2022/03/28 04:54:13;;;;;;;16.93;12.13;;;3.30;99.90;;;;;;5086162;28;20233;-66
2022/03/28 04:56:38;;;;;;;15.00;11.87;;;3.30;99.90;;;;;;5090041;28;20206;-62
2022/03/28 04:59:04;;;;;;;17.20;12.40;;;3.30;99.90;;;;;;5079694;28;20636;-66
2022/03/28 05:01:30;;;;;;;19.37;12.67;;;3.30;99.90;;;;;;5067906;28;20192;-65
2022/03/28 05:03:55;;;;;;;15.93;11.40;;;3.30;99.90;;;;;;5082709;28;20173;-65
2022/03/28 05:06:21;;;;;;;15.60;12.40;;;3.30;99.90;;;;;;5082651;28;20263;-66
2022/03/28 05:08:46;;;;;;;16.33;12.43;;;3.30;99.90;;;;;;5089577;28;20233;-65
2022/03/28 05:11:12;;;;;;;15.80;11.43;;;3.20;99.90;;;;;;5071463;28;20264;-65
2022/03/28 05:13:37;;;;;;;18.30;13.73;;;3.20;99.90;;;;;;5070807;28;20636;-66
2022/03/28 05:16:03;;;;;;;17.70;12.73;;;3.30;99.90;;;;;;5071718;28;20726;-65
2022/03/28 05:18:29;;;;;;;17.37;12.67;;;3.30;99.90;;;;;;5071267;28;20205;-65
2022/03/28 05:20:55;;;;;;;16.23;12.47;;;3.30;99.90;;;;;;5065307;28;20432;-66
2022/03/28 05:23:20;;;;;;;15.03;12.60;;;3.40;99.90;;;;;;5071613;28;20161;-66
2022/03/28 05:25:46;;;;;;;16.50;12.83;;;3.40;99.90;;;;;;5072523;28;20181;-64
2022/03/28 05:28:11;;;;;;;16.70;12.33;;;3.40;99.90;;;;;;5078106;28;20197;-66
2022/03/28 05:30:37;;;;;;;15.63;12.13;;;3.40;99.90;;;;;;5069613;28;20197;-66
2022/03/28 05:33:02;;;;;;;15.67;11.57;;;3.40;99.90;;;;;;5069808;28;20717;-65
2022/03/28 05:35:28;;;;;;;17.00;12.33;;;3.50;99.90;;;;;;5080092;28;20819;-65
2022/03/28 05:37:54;;;;;;;17.05;13.02;;;3.60;99.90;;;;;;5076887;28;20219;-66
2022/03/28 05:40:20;;;;;;;20.10;13.27;;;3.60;99.90;;;;;;5090300;28;20949;-65
2022/03/28 05:42:45;;;;;;;15.13;12.27;;;3.60;99.90;;;;;;5074127;28;20181;-65
2022/03/28 05:45:12;;;;;;;15.60;11.77;;;3.60;99.90;;;;;;5075640;28;20407;-65
2022/03/28 05:47:38;;;;;;;17.05;11.65;;;3.70;99.90;;;;;;5089825;28;20205;-66
2022/03/28 05:50:04;;;;;;;18.80;12.60;;;3.70;99.90;;;;;;5072548;28;20241;-65
2022/03/28 05:52:30;;;;;;;15.93;12.65;;;3.80;99.90;;;;;;5068022;28;20428;-66
2022/03/28 05:54:56;;;;;;;14.17;11.37;;;3.70;99.90;;;;;;5077020;28;20225;-66
2022/03/28 05:57:21;;;;;;;18.63;12.80;;;3.70;99.90;;;;;;5078692;28;20216;-66
2022/03/28 05:59:47;;;;;;;16.07;12.00;;;3.80;99.90;;;;;;5079387;28;20186;-65
2022/03/28 06:02:12;;;;;;;17.40;12.37;;;3.90;99.90;;;;;;5078222;28;20200;-65
2022/03/28 06:04:38;;;;;;;15.93;12.20;;;3.90;99.90;;;;;;5087153;28;20200;-66
2022/03/28 06:07:04;;;;;;;19.30;12.80;;;4.00;99.90;;;;;;5073381;28;20200;-66
2022/03/28 06:09:29;;;;;;;17.77;13.10;;;4.00;99.90;;;;;;5074732;28;20212;-66
2022/03/28 06:11:55;;;;;;;17.30;12.43;;;4.10;99.90;;;;;;5088315;28;20438;-66
2022/03/28 06:14:20;;;;;;;17.53;12.83;;;4.20;99.90;;;;;;5089575;28;20214;-66
2022/03/28 06:16:46;;;;;;;17.83;12.90;;;4.20;99.90;;;;;;5086538;28;20219;-66
2022/03/28 06:19:12;;;;;;;15.23;12.53;;;4.40;99.90;;;;;;5081179;28;20180;-66
2022/03/28 06:21:37;;;;;;;17.83;13.00;;;4.50;99.90;;;;;;5074932;28;20181;-67
2022/03/28 06:24:03;;;;;;;15.20;12.30;;;4.60;99.90;;;;;;5086864;28;20200;-66
2022/03/28 06:26:29;;;;;;;15.10;12.20;;;4.70;1.00;;;;;;5073335;28;20669;-66
2022/03/28 06:28:55;;;;;;;20.37;13.90;;;4.70;99.90;;;;;;5083173;28;20428;-67
2022/03/28 06:31:21;;;;;;;14.37;11.80;;;4.90;99.90;;;;;;5069102;28;20200;-67
2022/03/28 06:33:47;;;;;;;18.08;12.57;;;5.00;99.90;;;;;;5083641;28;20184;-66
2022/03/28 06:36:13;;;;;;;16.63;12.45;;;5.10;99.90;;;;;;5081604;28;20833;-66
2022/03/28 06:38:38;;;;;;;16.67;12.43;;;5.30;99.90;;;;;;5066661;28;20213;-68
2022/03/28 06:41:05;;;;;;;17.87;12.90;;;5.40;99.90;;;;;;5067756;28;20189;-66
2022/03/28 06:43:31;;;;;;;21.77;12.57;;;5.50;99.90;;;;;;5067411;28;20235;-67
2022/03/28 06:45:56;;;;;;;16.17;12.17;;;5.60;99.90;;;;;;5066393;28;20576;-66
2022/03/28 06:48:22;;;;;;;13.53;11.07;;;5.80;99.90;;;;;;5065306;28;20416;-66
2022/03/28 06:50:48;;;;;;;15.83;11.83;;;5.90;1.00;;;;;;5071076;28;20188;-67
2022/03/28 06:53:14;;;;;;;17.40;12.63;;;6.00;99.90;;;;;;5070469;28;20240;-66
2022/03/28 06:55:40;;;;;;;15.60;12.33;;;6.10;99.90;;;;;;5069443;28;20537;-66
2022/03/28 06:58:05;;;;;;;16.60;12.77;;;6.20;99.90;;;;;;5068043;28;20197;-66
2022/03/28 07:00:31;;;;;;;19.47;12.47;;;6.30;99.90;;;;;;5065005;28;20185;-67
2022/03/28 07:02:57;;;;;;;19.63;13.53;;;6.50;99.90;;;;;;5074721;28;20204;-67
2022/03/28 07:05:22;;;;;;;18.00;12.40;;;6.50;99.90;;;;;;5072073;28;20224;-64
2022/03/28 07:07:49;;;;;;;16.33;11.67;;;6.60;99.90;;;;;;5088472;28;20181;-67
2022/03/28 07:10:17;;;;;;;17.17;13.00;;;6.60;1.00;;;;;;5077035;28;20203;-68
2022/03/28 07:12:43;;;;;;;18.45;12.60;;;6.80;1.00;;;;;;5075810;28;20181;-68
2022/03/28 07:15:11;;;;;;;15.10;12.10;;;6.90;1.00;;;;;;5088183;28;20272;-66
2022/03/28 07:17:58;;;;;;;14.43;11.53;;;7.00;99.90;;;;;;5071823;28;20201;-67
2022/03/28 07:20:28;;;;;;;16.77;11.83;;;7.20;99.90;;;;;;5074256;28;20514;-67
2022/03/28 07:22:54;;;;;;;14.77;12.20;;;7.30;99.90;;;;;;5073300;28;20449;-67
2022/03/28 07:25:21;;;;;;;13.90;11.10;;;7.40;99.90;;;;;;5077591;28;20442;-67
2022/03/28 07:27:47;;;;;;;16.40;13.17;;;7.60;99.90;;;;;;5084143;28;20864;-68
2022/03/28 07:30:14;;;;;;;14.27;12.57;;;7.70;99.90;;;;;;5061188;28;20460;-67
2022/03/28 07:32:41;;;;;;;17.20;12.67;;;7.90;99.90;;;;;;5057672;28;20832;-67
2022/03/28 07:35:08;;;;;;;16.47;12.53;;;8.00;99.90;;;;;;5053435;28;20421;-68
2022/03/28 07:37:34;;;;;;;14.83;12.23;;;8.10;99.90;;;;;;5052653;28;21249;-66
2022/03/28 07:40:05;;;;;;;16.10;13.80;;;8.20;99.90;;;;;;5055910;28;20506;-67
2022/03/28 07:42:32;;;;;;;14.70;11.93;;;8.40;99.90;;;;;;5062978;28;20463;-66
2022/03/28 07:44:58;;;;;;;12.73;11.40;;;8.60;99.90;;;;;;5072479;28;20416;-67
2022/03/28 07:47:25;;;;;;;14.20;12.10;;;8.80;99.90;;;;;;5071392;28;21382;-66
2022/03/28 07:49:52;;;;;;;17.00;13.27;;;8.90;99.90;;;;;;5071245;28;20461;-66
2022/03/28 07:52:18;;;;;;;15.67;12.87;;;9.20;99.90;;;;;;5071687;28;20423;-67
2022/03/28 07:54:44;;;;;;;15.20;13.60;;;9.30;99.90;;;;;;5075007;28;20504;-67
2022/03/28 07:57:09;;;;;;;15.00;12.90;;;9.40;99.90;;;;;;5071270;28;20463;-67
2022/03/28 07:59:35;;;;;;;15.40;12.77;;;9.60;99.90;;;;;;5072396;28;20615;-66
2022/03/28 08:02:01;;;;;;;15.70;13.33;;;9.80;99.90;;;;;;5072178;28;20822;-67
2022/03/28 08:04:27;;;;;;;17.80;13.57;;;10.00;99.90;;;;;;5071879;28;20174;-66
2022/03/28 08:06:53;;;;;;;15.67;13.87;;;10.20;99.90;;;;;;5074350;28;20418;-65
2022/03/28 08:09:18;;;;;;;15.60;13.70;;;10.40;99.90;;;;;;5071674;28;20907;-66
2022/03/28 08:11:44;;;;;;;15.87;14.17;;;10.60;99.90;;;;;;5072080;28;20565;-64
2022/03/28 08:14:09;;;;;;;15.53;14.00;;;10.80;99.90;;;;;;5064029;28;20213;-67
2022/03/28 08:16:35;;;;;;;15.97;14.27;;;11.00;99.90;;;;;;5072985;28;20192;-67
2022/03/28 08:19:00;;;;;;;17.73;14.70;;;11.10;99.90;;;;;;5069830;28;20194;-66
2022/03/28 08:21:26;;;;;;;16.00;14.30;;;11.40;99.90;;;;;;5069474;28;20182;-66
2022/03/28 08:23:52;;;;;;;16.03;14.43;;;11.60;99.90;;;;;;5074633;28;20181;-67
2022/03/28 08:26:17;;;;;;;17.67;15.13;;;11.90;99.60;;;;;;5070732;28;20194;-67
2022/03/28 08:28:44;;;;;;;17.63;15.63;;;12.20;99.30;;;;;;5068501;28;20192;-68
2022/03/28 08:31:10;;;;;;;17.23;15.43;;;12.60;99.20;;;;;;5066936;28;20563;-66
2022/03/28 08:33:35;;;;;;;15.20;13.60;;;12.90;97.60;;;;;;5071739;28;20435;-63
2022/03/28 08:36:01;;;;;;;15.43;13.83;;;13.30;96.90;;;;;;5084147;28;20506;-67
2022/03/28 08:38:27;;;;;;;17.50;15.70;;;13.80;95.60;;;;;;5072063;28;20208;-67
2022/03/28 08:40:52;;;;;;;15.90;14.30;;;14.40;93.20;;;;;;5070627;28;20181;-67
2022/03/28 08:43:20;;;;;;;17.30;15.53;;;15.10;91.00;;;;;;5080402;28;20186;-66
2022/03/28 08:45:50;;;;;;;15.80;14.30;;;15.90;86.40;;;;;;5074138;28;20193;-66
2022/03/28 08:48:16;;;;;;;16.90;15.30;;;16.70;81.90;;;;;;5076537;28;20419;-65
2022/03/28 08:50:49;;;;;;;17.63;16.03;;;17.70;74.70;;;;;;5074638;28;20431;-66
2022/03/28 08:53:16;;;;;;;16.40;14.77;;;18.30;70.30;;;;;;5090754;28;20478;-65
2022/03/28 08:55:42;;;;;;;18.70;17.00;;;18.70;66.70;;;;;;5073070;28;20424;-66
2022/03/28 08:58:09;;;;;;;18.50;16.83;;;19.30;64.50;;;;;;5069275;28;20464;-66
2022/03/28 09:00:34;;;;;;;17.57;16.07;;;20.20;59.00;;;;;;5069458;28;21365;-65
2022/03/28 09:03:00;;;;;;;16.77;15.37;;;20.30;56.40;;;;;;5070568;28;20425;-65
2022/03/28 09:05:33;;;;;;;19.23;17.60;;;20.90;55.20;;;;;;5077330;28;20184;-65
2022/03/28 09:08:00;;;;;;;18.73;17.00;;;21.40;53.00;;;;;;5076530;28;20721;-65
2022/03/28 09:10:28;;;;;;;19.30;17.73;;;22.00;50.30;;;;;;5090286;28;20418;-65
2022/03/28 09:13:04;;;;;;;19.70;18.10;;;22.80;49.70;;;;;;5078217;28;20941;-65
2022/03/28 09:16:16;;;;;;;18.90;17.30;;;23.10;46.90;;;;;;5067278;28;20423;-64
2022/03/28 09:18:43;;;;;;;18.87;17.20;;;23.80;45.10;;;;;;5003878;28;20886;-65
2022/03/28 09:21:14;;;;;;;19.27;17.00;;;23.70;43.00;;;;;;5004015;28;20523;-65
2022/03/28 09:23:49;;;;;;;19.23;17.67;;;23.90;43.40;;;;;;5006839;28;21014;-65
2022/03/28 09:26:18;;;;;;;19.33;17.57;;;24.30;42.60;;;;;;5002350;28;20451;-65
2022/03/28 09:29:03;;;;;;;19.53;17.97;;;24.20;42.00;;;;;;4990126;28;20432;-65
2022/03/28 09:31:31;;;;;;;20.50;18.70;;;24.50;41.40;;;;;;4996192;28;20815;-64
2022/03/28 09:34:05;;;;;;;18.50;17.03;;;24.70;40.10;;;;;;5006481;28;20781;-65
2022/03/28 09:36:55;;;;;;;18.10;16.60;;;25.10;39.70;;;;;;5002548;28;20790;-64
2022/03/28 09:39:22;;;;;;;18.70;17.20;;;25.40;38.70;;;;;;4999190;28;20678;-63
2022/03/28 09:42:02;;;;;;;18.10;16.60;;;26.10;37.20;;;;;;5004361;28;20617;-64
2022/03/28 09:44:42;;;;;;;19.80;18.20;;;26.90;35.50;;;;;;4992361;28;20478;-63
2022/03/28 09:47:14;;;;;;;19.43;17.83;;;26.90;33.70;;;;;;4987810;28;20434;-63
2022/03/28 09:49:42;;;;;;;17.37;15.97;;;26.90;33.70;;;;;;5028352;28;20432;-64
2022/03/28 09:52:18;;;;;;;18.87;17.37;;;27.20;33.90;;;;;;5074957;28;20419;-63
2022/03/28 09:54:52;;;;;;;19.07;17.47;;;27.60;31.00;;;;;;5071152;28;20498;-64
2022/03/28 09:57:21;;;;;;;19.00;17.60;;;27.10;31.80;;;;;;5067983;28;20462;-63
2022/03/28 09:59:47;;;;;;;19.47;17.87;;;27.20;32.20;;;;;;5084172;28;20993;-64
2022/03/28 10:02:17;;;;;;;19.10;17.50;;;27.10;31.90;;;;;;5075031;28;20421;-64
2022/03/28 10:04:45;;;;;;;20.40;18.70;;;27.50;31.40;;;;;;5077803;28;20657;-64
2022/03/28 10:07:11;;;;;;;19.60;18.07;;;27.40;29.90;;;;;;5072847;28;20463;-65
2022/03/28 10:09:39;;;;;;;19.53;18.00;;;28.20;29.50;;;;;;5085165;28;20426;-65
2022/03/28 10:12:06;;;;;;;17.87;16.47;;;28.10;28.90;;;;;;5072611;28;20192;-64
2022/03/28 10:14:32;;;;;;;18.90;17.30;;;28.00;29.30;;;;;;5080638;28;20475;-64
2022/03/28 10:17:02;;;;;;;19.30;17.90;;;28.30;29.20;;;;;;5068789;28;20431;-65
2022/03/28 10:19:32;;;;;;;20.00;18.40;;;28.70;28.30;;;;;;5069518;28;20431;-65
2022/03/28 10:22:01;;;;;;;18.30;16.90;;;29.10;27.70;;;;;;5071492;28;20473;-65
2022/03/28 10:24:29;;;;;;;20.57;18.90;;;29.10;27.70;;;;;;5070660;28;20458;-66
2022/03/28 10:26:57;;;;;;;21.67;19.77;;;28.90;27.10;;;;;;5069585;28;20475;-64
2022/03/28 10:29:32;;;;;;;18.20;16.60;;;28.40;27.60;;;;;;5068277;28;20489;-65
2022/03/28 10:32:20;;;;;;;19.10;17.60;;;28.60;27.80;;;;;;5079250;28;20436;-64
2022/03/28 10:35:06;;;;;;;18.50;17.10;;;29.00;27.50;;;;;;5063913;28;20458;-64
2022/03/28 10:37:34;;;;;;;19.70;18.20;;;29.70;26.40;;;;;;5068986;28;20473;-64
2022/03/28 10:40:21;;;;;;;18.47;16.97;;;30.00;25.80;;;;;;5071085;28;20415;-64
2022/03/28 10:43:02;;;;;;;19.47;17.90;;;29.60;25.90;;;;;;5066672;28;20410;-65
2022/03/28 10:45:33;;;;;;;18.03;16.73;;;30.20;25.10;;;;;;5069146;28;20424;-65
2022/03/28 10:47:59;;;;;;;19.13;17.63;;;30.20;25.30;;;;;;5069308;28;20464;-65
2022/03/28 10:50:32;;;;;;;19.87;18.27;;;30.00;25.30;;;;;;5070386;28;20488;-64
2022/03/28 10:53:12;;;;;;;20.40;18.80;;;30.00;25.70;;;;;;5068214;28;20192;-65
2022/03/28 10:55:45;;;;;;;19.83;18.20;;;29.30;26.20;;;;;;5070102;28;20442;-65
2022/03/28 10:58:12;;;;;;;19.60;17.90;;;29.50;25.20;;;;;;5071861;28;20469;-65
2022/03/28 11:00:37;;;;;;;19.00;17.50;;;30.10;25.40;;;;;;5073453;28;20454;-64
2022/03/28 11:03:03;;;;;;;17.77;16.47;;;30.70;24.50;;;;;;5082280;28;20467;-65
2022/03/28 11:05:31;;;;;;;19.10;17.70;;;30.50;24.00;;;;;;5070995;28;20596;-65
2022/03/28 11:08:03;;;;;;;20.30;18.70;;;30.80;23.80;;;;;;5072319;28;20202;-64
2022/03/28 11:10:29;;;;;;;19.37;17.77;;;31.10;23.30;;;;;;5068885;28;20429;-61
2022/03/28 11:13:14;;;;;;;18.80;17.20;;;32.00;22.70;;;;;;5073201;28;20469;-63
2022/03/28 11:15:39;;;;;;;19.27;17.77;;;32.30;22.50;;;;;;5067793;28;20211;-65
2022/03/28 11:18:09;;;;;;;16.27;14.67;;;32.90;21.40;;;;;;5073195;28;20466;-65
2022/03/28 11:20:52;;;;;;;15.10;13.90;;;32.20;20.50;;;;;;5072152;28;20182;-65
2022/03/28 11:23:21;;;;;;;16.37;15.10;;;31.90;20.10;;;;;;5066201;28;20429;-65
2022/03/28 11:25:53;;;;;;;15.53;14.43;;;32.10;19.50;;;;;;5072347;28;20888;-67
2022/03/28 11:28:21;;;;;;;15.40;14.20;;;32.20;19.10;;;;;;5066815;28;20463;-65
2022/03/28 11:31:09;;;;;;;15.13;14.03;;;31.90;19.80;;;;;;5069358;28;20420;-64
2022/03/28 11:33:50;;;;;;;15.43;14.23;;;32.30;19.70;;;;;;5071079;28;20392;-66
2022/03/28 11:36:22;;;;;;;14.23;13.10;;;31.60;18.40;;;;;;5073684;28;20437;-66
2022/03/28 11:38:53;;;;;;;15.43;14.13;;;31.30;18.60;;;;;;5075365;28;20980;-66
2022/03/28 11:41:21;;;;;;;15.43;14.23;;;31.10;19.30;;;;;;5070522;28;20443;-66
2022/03/28 11:43:57;;;;;;;15.60;14.30;;;31.10;19.80;;;;;;5065864;28;20430;-66
2022/03/28 11:46:32;;;;;;;16.50;15.20;;;31.10;19.70;;;;;;5069878;28;20450;-65
2022/03/28 11:49:09;;;;;;;15.33;14.10;;;31.40;19.60;;;;;;5066317;28;20462;-65
2022/03/28 11:51:37;;;;;;;15.00;13.90;;;31.80;19.20;;;;;;5071269;28;20483;-65
2022/03/28 11:54:14;;;;;;;14.03;13.03;;;31.80;19.60;;;;;;5069236;28;20482;-66
2022/03/28 11:59:26;;;;;;;13.47;12.53;;;31.80;17.90;;;;;;5069704;28;20411;-66
2022/03/28 12:01:56;;;;;;;13.23;12.23;;;32.50;16.90;;;;;;5069913;28;20414;-65
2022/03/28 12:04:21;;;;;;;14.07;13.07;;;32.00;17.10;;;;;;5069729;28;20420;-65
2022/03/28 12:06:47;;;;;;;12.50;11.60;;;32.10;17.00;;;;;;5070756;28;20416;-65
2022/03/28 12:09:16;;;;;;;14.57;13.30;;;32.00;16.70;;;;;;5069045;28;20228;-65
2022/03/28 12:11:51;;;;;;;14.30;13.30;;;31.40;17.10;;;;;;5070047;28;20240;-65
2022/03/28 12:14:17;;;;;;;14.20;13.00;;;31.40;17.20;;;;;;5082572;28;20561;-66
2022/03/28 12:16:49;;;;;;;14.50;13.40;;;31.40;17.60;;;;;;5069976;28;20906;-66
2022/03/28 12:19:35;;;;;;;15.10;14.00;;;31.50;17.90;;;;;;5078900;28;20453;-64
2022/03/28 12:22:14;;;;;;;13.90;12.90;;;31.50;17.90;;;;;;5085834;28;20438;-65
2022/03/28 12:24:52;;;;;;;14.77;13.57;;;31.60;18.30;;;;;;5079259;28;21229;-65
2022/03/28 12:27:19;;;;;;;13.13;12.13;;;32.00;17.70;;;;;;5088748;28;20523;-65
2022/03/28 12:29:45;;;;;;;15.87;14.43;;;32.90;16.30;;;;;;5090484;28;20426;-63
2022/03/28 12:32:16;;;;;;;16.23;15.03;;;33.20;16.70;;;;;;5073493;28;20432;-62
2022/03/28 12:34:42;;;;;;;14.37;13.27;;;32.50;17.00;;;;;;5069834;28;20181;-65
2022/03/28 12:37:12;;;;;;;16.27;14.97;;;32.60;17.20;;;;;;5069909;28;20420;-66
2022/03/28 12:39:41;;;;;;;15.00;13.87;;;32.30;17.20;;;;;;5069315;28;20440;-66
2022/03/28 12:42:06;;;;;;;26.57;15.27;;;31.80;17.60;;;;;;5069414;28;20431;-66